Mary Bennett — WDC4592 — position and weather

sailwx.info

Track history (hours):
 
Tides and Currents Weather Stations Pressure Air Temp Water Temp Dewpoint Dewpoint Depression Visibility Wind Speed Wind Dir Waves Ship Positions

Mary Bennett

Owner: Savannah Marine Services, Savannah, GA. More information available from US FCC via Universal Licensing System and Coast Guard Vessel Documentation Center.

Last reported at 2017-Sep-26 13:00 UTC. Time now 2017-Sep-26 13:03 UTC.
Position N 32°05' W 081°06'.

Length 21 m; draft 2.3 m.

Type: Tug. MMSI: 367027140.

Date/timePositionNaut miles runAvg speedWind from/ knotsBaromVisibWave heightAir tempDewpointWater temp
2017-Sep-26 13:00N 32°05' W 081°06'0 0.0
2017-Sep-26 12:30N 32°05' W 081°06'0 0.0
2017-Sep-26 12:00N 32°05' W 081°06'3 6.1
2017-Sep-26 11:30N 32°05' W 081°02'3 5.9
2017-Sep-26 11:00N 32°05' W 080°59'4 7.4
2017-Sep-26 10:30N 32°02' W 080°55'4 7.1
2017-Sep-26 10:00N 32°02' W 080°51'2 4.2
2017-Sep-26 09:30N 32°01' W 080°53'1 1.4
2017-Sep-26 09:00N 32°01' W 080°52'1 2.5
2017-Sep-26 08:30N 32°02' W 080°51'3 6.2
2017-Sep-26 08:00N 32°02' W 080°55'4 7.4
2017-Sep-26 07:30N 32°04' W 080°59'3 5.1
2017-Sep-26 07:00N 32°05' W 081°01'3 6.4
2017-Sep-26 06:30N 32°05' W 081°05'1 1.2
2017-Sep-26 06:00N 32°05' W 081°06'3 6.5
2017-Sep-26 05:30N 32°05' W 081°02'3 5.6
2017-Sep-26 05:00N 32°04' W 080°59'3 5.4
2017-Sep-26 04:30N 32°03' W 081°02'2 4.3
2017-Sep-26 04:00N 32°01' W 081°01'3 5.7
2017-Sep-26 03:30N 31°59' W 081°03'3 6.8
2017-Sep-26 03:00N 31°56' W 081°04'3 5.1
2017-Sep-26 02:30N 31°53' W 081°05'3 5.0
2017-Sep-26 02:00N 31°51' W 081°07'4 6.7
2017-Sep-26 01:25N 31°49' W 081°11'  
Track history (hours):
 
Tides and Currents Weather Stations Pressure Air Temp Water Temp Dewpoint Dewpoint Depression Visibility Wind Speed Wind Dir Waves Ship Positions

Mary Bennett

Owner: Savannah Marine Services, Savannah, GA. More information available from US FCC via Universal Licensing System and Coast Guard Vessel Documentation Center.

Last reported at 2017-Sep-26 13:00 UTC. Time now 2017-Sep-26 13:03 UTC.
Position N 32°05' W 081°06'.

Length 21 m; draft 2.3 m.

Type: Tug. MMSI: 367027140.

Date/timePositionNaut miles runAvg speedWind from/ knotsBaromVisibWave heightAir tempDewpointWater temp
2017-Sep-26 13:00N 32°05' W 081°06'0 0.0
2017-Sep-26 12:30N 32°05' W 081°06'0 0.0
2017-Sep-26 12:00N 32°05' W 081°06'3 6.1
2017-Sep-26 11:30N 32°05' W 081°02'3 5.9
2017-Sep-26 11:00N 32°05' W 080°59'4 7.4
2017-Sep-26 10:30N 32°02' W 080°55'4 7.1
2017-Sep-26 10:00N 32°02' W 080°51'2 4.2
2017-Sep-26 09:30N 32°01' W 080°53'1 1.4
2017-Sep-26 09:00N 32°01' W 080°52'1 2.5
2017-Sep-26 08:30N 32°02' W 080°51'3 6.2
2017-Sep-26 08:00N 32°02' W 080°55'4 7.4
2017-Sep-26 07:30N 32°04' W 080°59'3 5.1
2017-Sep-26 07:00N 32°05' W 081°01'3 6.4
2017-Sep-26 06:30N 32°05' W 081°05'1 1.2
2017-Sep-26 06:00N 32°05' W 081°06'3 6.5
2017-Sep-26 05:30N 32°05' W 081°02'3 5.6
2017-Sep-26 05:00N 32°04' W 080°59'3 5.4
2017-Sep-26 04:30N 32°03' W 081°02'2 4.3
2017-Sep-26 04:00N 32°01' W 081°01'3 5.7
2017-Sep-26 03:30N 31°59' W 081°03'3 6.8
2017-Sep-26 03:00N 31°56' W 081°04'3 5.1
2017-Sep-26 02:30N 31°53' W 081°05'3 5.0
2017-Sep-26 02:00N 31°51' W 081°07'4 6.7
2017-Sep-26 01:25N 31°49' W 081°11'  

Dump ship's entire track history